CheckWX is a tool to help pilots better visualize weather data.  It is not intended as a substitute for an official pre-flight weather briefing.

17:53:52 UTC

KTUS TAF
Tucson International Airport
Tucson, Arizona, USA
KTUS 241720Z 2418/2518 21005KT P6SM FEW250 FM242000 31008KT P6SM SCT250 FM250500 15006KT P6SM SCT250

Mar-24@
18:00 UTC

Mar-24 @ 18:00 UTC

Mar-24@
20:00 UTC

Mar-24 @ 20:00 UTC

KTUS 241720Z 2418/2518 21005KT P6SM FEW250
Wind
  • 210° at 5 KTS
Cloud Levels
  • Few at 25,000' AGL

Mar-24@
20:00 UTC

Mar-24 @ 20:00 UTC

Mar-25@
05:00 UTC

Mar-25 @ 05:00 UTC

FM242000 31008KT P6SM SCT250

From

From Standard forecast or significant change

Wind
  • 310° at 8 KTS
Cloud Levels
  • Scattered at 25,000' AGL

Mar-25@
05:00 UTC

Mar-25 @ 05:00 UTC

Mar-25@
18:00 UTC

Mar-25 @ 18:00 UTC

FM250500 15006KT P6SM SCT250

From

From Standard forecast or significant change

Wind
  • 150° at 6 KTS
Cloud Levels
  • Scattered at 25,000' AGL